Hauptseite
METAR-TAF:

METAR-TAF

Flughäfen :

Meiringen, Schweiz

Militärflugplatz Meiringen

Breite: 46-44-25N, Länge: 8-06-36E, Höhe: 577 m

Beobachtung

Neuester Wetterbericht von vor 56 Minuten, um 10:50 UTC
Wind 2 kt aus unterschiedlichen Richtungen
Temperatur 8°C
Luftfeuchtigkeit 76%
Luftdruck 1027 hPa
Sichtweite 10 km oder mehr
Aufgelockert bewölkt in der Höhe von 1400 ft
Durchbrochene Bewölkung in der Höhe von 3300 ft

METAR: LSMM 231050Z VRB02KT 9999 SCT014 BKN033 08/04 Q1027 RMK BLU

Zeit: 12:46 (11:46 UTC)


TAF: fehlend

Wetterbeobachtungen und Prognosen von mehr als 4000 Flughäfen (METAR und TAF Bericht).

Die verfügbaren Stationen werden durch gelbe und rote Markierungen auf der Karte dargestellt.

Führen Sie die Maus auf sie, um den Namen der Station zu sehen.

Darauf klicken, um die Beobachtung von Wetterbeobachtungen und Prognosen zu sehen.

Um die Karte zu ändern : klicken Sie auf den grünen Tasten mit einem schwarzen Kreuz Zum Vergrößern, auf den grünen Button mit einem Gedankenstrich zu verkleinern, oder auf die grünen Pfeile für benachbarte Karten.


METAR-TAF: